sensor_id;sensor_type;location;lat;lon;timestamp;temperature;humidity
8910;DHT22;4490;49.072;8.804;2024-01-06T00:02:15;6.30;99.90
8910;DHT22;4490;49.072;8.804;2024-01-06T00:04:40;6.30;99.90
8910;DHT22;4490;49.072;8.804;2024-01-06T00:07:06;6.30;99.90
8910;DHT22;4490;49.072;8.804;2024-01-06T00:09:31;6.30;99.90
8910;DHT22;4490;49.072;8.804;2024-01-06T00:11:57;6.30;99.90
8910;DHT22;4490;49.072;8.804;2024-01-06T00:14:22;6.40;99.90
8910;DHT22;4490;49.072;8.804;2024-01-06T00:16:48;6.40;99.90
8910;DHT22;4490;49.072;8.804;2024-01-06T00:19:13;6.50;99.90
8910;DHT22;4490;49.072;8.804;2024-01-06T00:21:39;6.50;99.90
8910;DHT22;4490;49.072;8.804;2024-01-06T00:24:05;6.60;99.90
8910;DHT22;4490;49.072;8.804;2024-01-06T00:26:30;6.60;99.90
8910;DHT22;4490;49.072;8.804;2024-01-06T00:28:56;6.70;99.90
8910;DHT22;4490;49.072;8.804;2024-01-06T00:31:21;6.70;99.90
8910;DHT22;4490;49.072;8.804;2024-01-06T00:33:47;6.70;99.90
8910;DHT22;4490;49.072;8.804;2024-01-06T00:36:12;6.80;99.90
8910;DHT22;4490;49.072;8.804;2024-01-06T00:38:38;6.80;99.90
8910;DHT22;4490;49.072;8.804;2024-01-06T00:41:04;6.80;99.90
8910;DHT22;4490;49.072;8.804;2024-01-06T00:43:29;6.90;99.90
8910;DHT22;4490;49.072;8.804;2024-01-06T00:45:55;6.90;99.90
8910;DHT22;4490;49.072;8.804;2024-01-06T00:48:21;6.90;99.90
8910;DHT22;4490;49.072;8.804;2024-01-06T00:50:46;6.90;99.90
8910;DHT22;4490;49.072;8.804;2024-01-06T00:53:12;6.90;99.90
8910;DHT22;4490;49.072;8.804;2024-01-06T00:55:38;6.90;99.90
8910;DHT22;4490;49.072;8.804;2024-01-06T00:58:04;6.90;99.90
8910;DHT22;4490;49.072;8.804;2024-01-06T01:00:29;6.80;99.90
8910;DHT22;4490;49.072;8.804;2024-01-06T01:02:55;6.80;99.90
8910;DHT22;4490;49.072;8.804;2024-01-06T01:05:20;6.80;99.90
8910;DHT22;4490;49.072;8.804;2024-01-06T01:07:46;6.80;99.90
8910;DHT22;4490;49.072;8.804;2024-01-06T01:10:12;6.80;99.90
8910;DHT22;4490;49.072;8.804;2024-01-06T01:12:37;6.80;99.90
8910;DHT22;4490;49.072;8.804;2024-01-06T01:15:03;6.80;99.90
8910;DHT22;4490;49.072;8.804;2024-01-06T01:17:29;6.80;99.90
8910;DHT22;4490;49.072;8.804;2024-01-06T01:19:54;6.80;99.90
8910;DHT22;4490;49.072;8.804;2024-01-06T01:22:20;6.80;99.90
8910;DHT22;4490;49.072;8.804;2024-01-06T01:24:46;6.80;99.90
8910;DHT22;4490;49.072;8.804;2024-01-06T01:27:12;6.80;99.90
8910;DHT22;4490;49.072;8.804;2024-01-06T01:29:37;6.80;99.90
8910;DHT22;4490;49.072;8.804;2024-01-06T01:32:03;6.80;99.90
8910;DHT22;4490;49.072;8.804;2024-01-06T01:34:29;6.80;99.90
8910;DHT22;4490;49.072;8.804;2024-01-06T01:36:55;6.70;99.90
8910;DHT22;4490;49.072;8.804;2024-01-06T01:39:21;6.80;99.90
8910;DHT22;4490;49.072;8.804;2024-01-06T01:41:46;6.80;99.90
8910;DHT22;4490;49.072;8.804;2024-01-06T01:44:12;6.70;99.90
8910;DHT22;4490;49.072;8.804;2024-01-06T01:46:38;6.70;99.90
8910;DHT22;4490;49.072;8.804;2024-01-06T01:49:04;6.70;99.90
8910;DHT22;4490;49.072;8.804;2024-01-06T01:51:33;6.70;99.90
8910;DHT22;4490;49.072;8.804;2024-01-06T01:54:01;6.70;99.90
8910;DHT22;4490;49.072;8.804;2024-01-06T01:56:27;6.70;99.90
8910;DHT22;4490;49.072;8.804;2024-01-06T01:58:54;6.70;99.90
8910;DHT22;4490;49.072;8.804;2024-01-06T02:01:20;6.60;99.90
8910;DHT22;4490;49.072;8.804;2024-01-06T02:03:46;6.60;99.90
8910;DHT22;4490;49.072;8.804;2024-01-06T02:06:12;6.60;99.90
8910;DHT22;4490;49.072;8.804;2024-01-06T02:08:38;6.60;99.90
8910;DHT22;4490;49.072;8.804;2024-01-06T02:11:04;6.60;99.90
8910;DHT22;4490;49.072;8.804;2024-01-06T02:13:37;6.60;99.90
8910;DHT22;4490;49.072;8.804;2024-01-06T02:16:04;6.60;99.90
8910;DHT22;4490;49.072;8.804;2024-01-06T02:18:31;6.60;99.90
8910;DHT22;4490;49.072;8.804;2024-01-06T02:20:59;6.60;99.90
8910;DHT22;4490;49.072;8.804;2024-01-06T02:23:25;6.60;99.90
8910;DHT22;4490;49.072;8.804;2024-01-06T02:25:51;6.60;99.90
8910;DHT22;4490;49.072;8.804;2024-01-06T02:28:16;6.50;99.90
8910;DHT22;4490;49.072;8.804;2024-01-06T02:30:42;6.60;99.90
8910;DHT22;4490;49.072;8.804;2024-01-06T02:33:08;6.60;99.90
8910;DHT22;4490;49.072;8.804;2024-01-06T02:35:33;6.50;99.90
8910;DHT22;4490;49.072;8.804;2024-01-06T02:37:59;6.50;99.90
8910;DHT22;4490;49.072;8.804;2024-01-06T02:40:24;6.50;99.90
8910;DHT22;4490;49.072;8.804;2024-01-06T02:42:50;6.50;99.90
8910;DHT22;4490;49.072;8.804;2024-01-06T02:45:16;6.50;99.90
8910;DHT22;4490;49.072;8.804;2024-01-06T02:47:41;6.50;99.90
8910;DHT22;4490;49.072;8.804;2024-01-06T02:50:07;6.50;99.90
8910;DHT22;4490;49.072;8.804;2024-01-06T02:52:33;6.50;99.90
8910;DHT22;4490;49.072;8.804;2024-01-06T02:54:58;6.40;99.90
8910;DHT22;4490;49.072;8.804;2024-01-06T02:57:24;6.40;99.90
8910;DHT22;4490;49.072;8.804;2024-01-06T02:59:50;6.40;99.90
8910;DHT22;4490;49.072;8.804;2024-01-06T03:02:16;6.40;99.90
8910;DHT22;4490;49.072;8.804;2024-01-06T03:04:42;6.40;99.90
8910;DHT22;4490;49.072;8.804;2024-01-06T03:07:07;6.40;99.90
8910;DHT22;4490;49.072;8.804;2024-01-06T03:09:33;6.40;99.90
8910;DHT22;4490;49.072;8.804;2024-01-06T03:11:58;6.40;99.90
8910;DHT22;4490;49.072;8.804;2024-01-06T03:14:24;6.40;99.90
8910;DHT22;4490;49.072;8.804;2024-01-06T03:16:49;6.40;99.90
8910;DHT22;4490;49.072;8.804;2024-01-06T03:19:15;6.40;99.90
8910;DHT22;4490;49.072;8.804;2024-01-06T03:21:40;6.40;99.90
8910;DHT22;4490;49.072;8.804;2024-01-06T03:24:07;6.40;99.90
8910;DHT22;4490;49.072;8.804;2024-01-06T03:26:34;6.40;99.90
8910;DHT22;4490;49.072;8.804;2024-01-06T03:29:00;6.50;99.90
8910;DHT22;4490;49.072;8.804;2024-01-06T03:31:28;6.50;99.90
8910;DHT22;4490;49.072;8.804;2024-01-06T03:33:53;6.50;99.90
8910;DHT22;4490;49.072;8.804;2024-01-06T03:36:21;6.50;99.90
8910;DHT22;4490;49.072;8.804;2024-01-06T03:38:46;6.50;99.90
8910;DHT22;4490;49.072;8.804;2024-01-06T03:41:12;6.40;99.90
8910;DHT22;4490;49.072;8.804;2024-01-06T03:43:38;6.50;99.90
8910;DHT22;4490;49.072;8.804;2024-01-06T03:46:05;6.50;99.90
8910;DHT22;4490;49.072;8.804;2024-01-06T03:48:31;6.50;99.90
8910;DHT22;4490;49.072;8.804;2024-01-06T03:50:59;6.40;99.90
8910;DHT22;4490;49.072;8.804;2024-01-06T03:53:24;6.40;99.90
8910;DHT22;4490;49.072;8.804;2024-01-06T03:55:50;6.40;99.90
8910;DHT22;4490;49.072;8.804;2024-01-06T03:58:17;6.40;99.90
8910;DHT22;4490;49.072;8.804;2024-01-06T04:00:43;6.40;99.90
8910;DHT22;4490;49.072;8.804;2024-01-06T04:03:08;6.40;99.90
8910;DHT22;4490;49.072;8.804;2024-01-06T04:05:34;6.40;99.90
8910;DHT22;4490;49.072;8.804;2024-01-06T04:07:59;6.40;99.90
8910;DHT22;4490;49.072;8.804;2024-01-06T04:10:25;6.40;99.90
8910;DHT22;4490;49.072;8.804;2024-01-06T04:12:51;6.40;99.90
8910;DHT22;4490;49.072;8.804;2024-01-06T04:15:17;6.40;99.90
8910;DHT22;4490;49.072;8.804;2024-01-06T04:17:42;6.50;99.90
8910;DHT22;4490;49.072;8.804;2024-01-06T04:20:08;6.50;99.90
8910;DHT22;4490;49.072;8.804;2024-01-06T04:22:37;6.50;99.90
8910;DHT22;4490;49.072;8.804;2024-01-06T04:25:03;6.50;99.90
8910;DHT22;4490;49.072;8.804;2024-01-06T04:27:29;6.50;99.90
8910;DHT22;4490;49.072;8.804;2024-01-06T04:29:55;6.50;99.90
8910;DHT22;4490;49.072;8.804;2024-01-06T04:32:20;6.50;99.90
8910;DHT22;4490;49.072;8.804;2024-01-06T04:34:46;6.50;99.90
8910;DHT22;4490;49.072;8.804;2024-01-06T04:37:11;6.50;99.90
8910;DHT22;4490;49.072;8.804;2024-01-06T04:39:37;6.50;99.90
8910;DHT22;4490;49.072;8.804;2024-01-06T04:42:04;6.50;99.90
8910;DHT22;4490;49.072;8.804;2024-01-06T04:44:29;6.50;99.90
8910;DHT22;4490;49.072;8.804;2024-01-06T04:46:55;6.50;99.90
8910;DHT22;4490;49.072;8.804;2024-01-06T04:49:21;6.50;99.90
8910;DHT22;4490;49.072;8.804;2024-01-06T04:51:47;6.50;99.90
8910;DHT22;4490;49.072;8.804;2024-01-06T04:54:13;6.50;99.90
8910;DHT22;4490;49.072;8.804;2024-01-06T04:56:39;6.50;99.90
8910;DHT22;4490;49.072;8.804;2024-01-06T04:59:05;6.50;99.90
8910;DHT22;4490;49.072;8.804;2024-01-06T05:01:30;6.50;99.90
8910;DHT22;4490;49.072;8.804;2024-01-06T05:03:56;6.50;99.90
8910;DHT22;4490;49.072;8.804;2024-01-06T05:06:23;6.50;99.90
8910;DHT22;4490;49.072;8.804;2024-01-06T05:08:49;6.50;99.90
8910;DHT22;4490;49.072;8.804;2024-01-06T05:11:14;6.50;99.90
8910;DHT22;4490;49.072;8.804;2024-01-06T05:13:40;6.50;99.90
8910;DHT22;4490;49.072;8.804;2024-01-06T05:16:07;6.50;99.90
8910;DHT22;4490;49.072;8.804;2024-01-06T05:18:32;6.40;99.90
8910;DHT22;4490;49.072;8.804;2024-01-06T05:20:58;6.40;99.90
8910;DHT22;4490;49.072;8.804;2024-01-06T05:23:23;6.40;99.90
8910;DHT22;4490;49.072;8.804;2024-01-06T05:25:49;6.40;99.90
8910;DHT22;4490;49.072;8.804;2024-01-06T05:28:14;6.40;99.90
8910;DHT22;4490;49.072;8.804;2024-01-06T05:30:40;6.40;99.90
8910;DHT22;4490;49.072;8.804;2024-01-06T05:33:09;6.40;99.90
8910;DHT22;4490;49.072;8.804;2024-01-06T05:35:35;6.40;99.90
8910;DHT22;4490;49.072;8.804;2024-01-06T05:38:00;6.30;99.90
8910;DHT22;4490;49.072;8.804;2024-01-06T05:40:26;6.40;99.90
8910;DHT22;4490;49.072;8.804;2024-01-06T05:42:51;6.40;99.90
8910;DHT22;4490;49.072;8.804;2024-01-06T05:45:21;6.40;99.90
8910;DHT22;4490;49.072;8.804;2024-01-06T05:47:46;6.40;99.90
8910;DHT22;4490;49.072;8.804;2024-01-06T05:50:15;6.40;99.90
8910;DHT22;4490;49.072;8.804;2024-01-06T05:52:41;6.30;99.90
8910;DHT22;4490;49.072;8.804;2024-01-06T05:55:07;6.30;99.90
8910;DHT22;4490;49.072;8.804;2024-01-06T05:57:32;6.40;99.90
8910;DHT22;4490;49.072;8.804;2024-01-06T05:59:59;6.40;99.90
8910;DHT22;4490;49.072;8.804;2024-01-06T06:02:25;6.40;99.90
8910;DHT22;4490;49.072;8.804;2024-01-06T06:04:51;6.40;99.90
8910;DHT22;4490;49.072;8.804;2024-01-06T06:07:16;6.40;99.90
8910;DHT22;4490;49.072;8.804;2024-01-06T06:09:42;6.40;99.90
8910;DHT22;4490;49.072;8.804;2024-01-06T06:12:08;6.40;99.90
8910;DHT22;4490;49.072;8.804;2024-01-06T06:14:33;6.40;99.90
8910;DHT22;4490;49.072;8.804;2024-01-06T06:16:59;6.40;99.90
8910;DHT22;4490;49.072;8.804;2024-01-06T06:19:24;6.40;99.90
8910;DHT22;4490;49.072;8.804;2024-01-06T06:21:50;6.40;99.90
8910;DHT22;4490;49.072;8.804;2024-01-06T06:24:15;6.40;99.90
8910;DHT22;4490;49.072;8.804;2024-01-06T06:26:41;6.40;99.90
8910;DHT22;4490;49.072;8.804;2024-01-06T06:29:06;6.40;99.90
8910;DHT22;4490;49.072;8.804;2024-01-06T06:31:32;6.50;99.90
8910;DHT22;4490;49.072;8.804;2024-01-06T06:33:58;6.50;99.90
8910;DHT22;4490;49.072;8.804;2024-01-06T06:36:23;6.50;99.90
8910;DHT22;4490;49.072;8.804;2024-01-06T06:38:49;6.50;99.90
8910;DHT22;4490;49.072;8.804;2024-01-06T06:41:14;6.50;99.90
8910;DHT22;4490;49.072;8.804;2024-01-06T06:43:41;6.50;99.90
8910;DHT22;4490;49.072;8.804;2024-01-06T06:46:07;6.50;99.90
8910;DHT22;4490;49.072;8.804;2024-01-06T06:48:33;6.50;99.90
8910;DHT22;4490;49.072;8.804;2024-01-06T06:51:01;6.50;99.90
8910;DHT22;4490;49.072;8.804;2024-01-06T06:53:27;6.50;99.90
8910;DHT22;4490;49.072;8.804;2024-01-06T06:55:53;6.60;99.90
8910;DHT22;4490;49.072;8.804;2024-01-06T06:58:18;6.60;99.90
8910;DHT22;4490;49.072;8.804;2024-01-06T07:00:44;6.60;99.90
8910;DHT22;4490;49.072;8.804;2024-01-06T07:03:10;6.60;99.90
8910;DHT22;4490;49.072;8.804;2024-01-06T07:05:35;6.60;99.90
8910;DHT22;4490;49.072;8.804;2024-01-06T07:08:01;6.60;99.90
8910;DHT22;4490;49.072;8.804;2024-01-06T07:10:27;6.60;99.90
8910;DHT22;4490;49.072;8.804;2024-01-06T07:12:52;6.60;99.90
8910;DHT22;4490;49.072;8.804;2024-01-06T07:15:18;6.60;99.90
8910;DHT22;4490;49.072;8.804;2024-01-06T07:17:44;6.70;99.90
8910;DHT22;4490;49.072;8.804;2024-01-06T07:20:10;6.70;99.90
8910;DHT22;4490;49.072;8.804;2024-01-06T07:22:36;6.70;99.90
8910;DHT22;4490;49.072;8.804;2024-01-06T07:25:02;6.70;99.90
8910;DHT22;4490;49.072;8.804;2024-01-06T07:27:27;6.60;99.90
8910;DHT22;4490;49.072;8.804;2024-01-06T07:29:53;6.70;99.90
8910;DHT22;4490;49.072;8.804;2024-01-06T07:32:21;6.70;99.90
8910;DHT22;4490;49.072;8.804;2024-01-06T07:34:47;6.70;99.90
8910;DHT22;4490;49.072;8.804;2024-01-06T07:37:12;6.70;99.90
8910;DHT22;4490;49.072;8.804;2024-01-06T07:39:38;6.70;99.90
8910;DHT22;4490;49.072;8.804;2024-01-06T07:42:04;6.70;99.90
8910;DHT22;4490;49.072;8.804;2024-01-06T07:44:30;6.70;99.90
8910;DHT22;4490;49.072;8.804;2024-01-06T07:46:55;6.70;99.90
8910;DHT22;4490;49.072;8.804;2024-01-06T07:49:21;6.60;99.90
8910;DHT22;4490;49.072;8.804;2024-01-06T07:51:46;6.60;99.90
8910;DHT22;4490;49.072;8.804;2024-01-06T07:54:12;6.60;99.90
8910;DHT22;4490;49.072;8.804;2024-01-06T07:56:38;6.60;99.90
8910;DHT22;4490;49.072;8.804;2024-01-06T07:59:04;6.60;99.90
8910;DHT22;4490;49.072;8.804;2024-01-06T08:01:30;6.60;99.90
8910;DHT22;4490;49.072;8.804;2024-01-06T08:03:55;6.70;99.90
8910;DHT22;4490;49.072;8.804;2024-01-06T08:06:21;6.70;99.90
8910;DHT22;4490;49.072;8.804;2024-01-06T08:08:47;6.70;99.90
8910;DHT22;4490;49.072;8.804;2024-01-06T08:11:12;6.70;99.90
8910;DHT22;4490;49.072;8.804;2024-01-06T08:13:38;6.70;99.90
8910;DHT22;4490;49.072;8.804;2024-01-06T08:16:04;6.70;99.90
8910;DHT22;4490;49.072;8.804;2024-01-06T08:18:31;6.70;99.90
8910;DHT22;4490;49.072;8.804;2024-01-06T08:20:56;6.70;99.90
8910;DHT22;4490;49.072;8.804;2024-01-06T08:23:22;6.70;99.90
8910;DHT22;4490;49.072;8.804;2024-01-06T08:25:48;6.70;99.90
8910;DHT22;4490;49.072;8.804;2024-01-06T08:28:14;6.70;99.90
8910;DHT22;4490;49.072;8.804;2024-01-06T08:30:44;6.70;99.90
8910;DHT22;4490;49.072;8.804;2024-01-06T08:33:10;6.80;99.90
8910;DHT22;4490;49.072;8.804;2024-01-06T08:35:35;6.80;99.90
8910;DHT22;4490;49.072;8.804;2024-01-06T08:38:08;6.80;99.90
8910;DHT22;4490;49.072;8.804;2024-01-06T08:40:34;6.80;99.90
8910;DHT22;4490;49.072;8.804;2024-01-06T08:43:00;6.80;99.90
8910;DHT22;4490;49.072;8.804;2024-01-06T08:45:26;6.80;99.90
8910;DHT22;4490;49.072;8.804;2024-01-06T08:47:51;6.80;99.90
8910;DHT22;4490;49.072;8.804;2024-01-06T08:50:17;6.80;99.90
8910;DHT22;4490;49.072;8.804;2024-01-06T08:52:43;6.80;99.90
8910;DHT22;4490;49.072;8.804;2024-01-06T08:55:08;6.80;99.90
8910;DHT22;4490;49.072;8.804;2024-01-06T08:57:34;6.80;99.90
8910;DHT22;4490;49.072;8.804;2024-01-06T08:59:59;6.80;99.90
8910;DHT22;4490;49.072;8.804;2024-01-06T09:02:25;6.80;99.90
8910;DHT22;4490;49.072;8.804;2024-01-06T09:04:51;6.80;99.90
8910;DHT22;4490;49.072;8.804;2024-01-06T09:07:16;6.80;99.90
8910;DHT22;4490;49.072;8.804;2024-01-06T09:09:43;6.80;99.90
8910;DHT22;4490;49.072;8.804;2024-01-06T09:12:09;6.80;99.90
8910;DHT22;4490;49.072;8.804;2024-01-06T09:14:35;6.80;99.90
8910;DHT22;4490;49.072;8.804;2024-01-06T09:17:00;6.90;99.90
8910;DHT22;4490;49.072;8.804;2024-01-06T09:19:26;6.90;99.90
8910;DHT22;4490;49.072;8.804;2024-01-06T09:21:54;6.90;99.90
8910;DHT22;4490;49.072;8.804;2024-01-06T09:24:20;6.90;99.90
8910;DHT22;4490;49.072;8.804;2024-01-06T09:26:46;6.90;99.90
8910;DHT22;4490;49.072;8.804;2024-01-06T09:29:11;6.90;99.90
8910;DHT22;4490;49.072;8.804;2024-01-06T09:31:37;6.90;99.90
8910;DHT22;4490;49.072;8.804;2024-01-06T09:34:03;6.90;99.90
8910;DHT22;4490;49.072;8.804;2024-01-06T09:36:30;6.90;99.90
8910;DHT22;4490;49.072;8.804;2024-01-06T09:38:56;6.90;99.90
8910;DHT22;4490;49.072;8.804;2024-01-06T09:41:22;7.00;99.90
8910;DHT22;4490;49.072;8.804;2024-01-06T09:43:48;7.00;99.90
8910;DHT22;4490;49.072;8.804;2024-01-06T09:46:26;7.00;99.90
8910;DHT22;4490;49.072;8.804;2024-01-06T09:48:53;7.10;99.90
8910;DHT22;4490;49.072;8.804;2024-01-06T09:51:21;7.10;99.90
8910;DHT22;4490;49.072;8.804;2024-01-06T09:54:00;7.00;99.90
8910;DHT22;4490;49.072;8.804;2024-01-06T09:56:28;7.10;99.90
8910;DHT22;4490;49.072;8.804;2024-01-06T09:58:55;7.10;99.90
8910;DHT22;4490;49.072;8.804;2024-01-06T10:01:21;7.10;99.90
8910;DHT22;4490;49.072;8.804;2024-01-06T10:03:47;7.10;99.90
8910;DHT22;4490;49.072;8.804;2024-01-06T10:06:16;7.10;99.90
8910;DHT22;4490;49.072;8.804;2024-01-06T10:08:43;7.10;99.90
8910;DHT22;4490;49.072;8.804;2024-01-06T10:11:08;7.10;99.90
8910;DHT22;4490;49.072;8.804;2024-01-06T10:13:35;7.10;99.90
8910;DHT22;4490;49.072;8.804;2024-01-06T10:16:01;7.10;99.90
8910;DHT22;4490;49.072;8.804;2024-01-06T10:18:27;7.20;99.90
8910;DHT22;4490;49.072;8.804;2024-01-06T10:20:55;7.20;99.90
8910;DHT22;4490;49.072;8.804;2024-01-06T10:23:26;7.20;99.90
8910;DHT22;4490;49.072;8.804;2024-01-06T10:25:55;7.20;99.90
8910;DHT22;4490;49.072;8.804;2024-01-06T10:28:22;7.30;99.90
8910;DHT22;4490;49.072;8.804;2024-01-06T10:30:55;7.20;99.90
8910;DHT22;4490;49.072;8.804;2024-01-06T10:33:25;7.30;99.90
8910;DHT22;4490;49.072;8.804;2024-01-06T10:35:51;7.30;99.90
8910;DHT22;4490;49.072;8.804;2024-01-06T10:38:17;7.30;99.90
8910;DHT22;4490;49.072;8.804;2024-01-06T10:40:59;7.30;99.90
8910;DHT22;4490;49.072;8.804;2024-01-06T10:43:26;7.40;99.90
8910;DHT22;4490;49.072;8.804;2024-01-06T10:45:56;7.40;99.90
8910;DHT22;4490;49.072;8.804;2024-01-06T10:48:26;7.40;99.90
8910;DHT22;4490;49.072;8.804;2024-01-06T10:50:55;7.50;99.90
8910;DHT22;4490;49.072;8.804;2024-01-06T10:53:21;7.50;99.90
8910;DHT22;4490;49.072;8.804;2024-01-06T10:55:49;7.60;99.90
8910;DHT22;4490;49.072;8.804;2024-01-06T10:58:17;7.60;99.90
8910;DHT22;4490;49.072;8.804;2024-01-06T11:00:43;7.60;99.90
8910;DHT22;4490;49.072;8.804;2024-01-06T11:03:09;7.60;99.90
8910;DHT22;4490;49.072;8.804;2024-01-06T11:05:39;7.70;99.90
8910;DHT22;4490;49.072;8.804;2024-01-06T11:08:06;7.70;99.90
8910;DHT22;4490;49.072;8.804;2024-01-06T11:10:32;7.70;99.90
8910;DHT22;4490;49.072;8.804;2024-01-06T11:13:12;7.70;99.90
8910;DHT22;4490;49.072;8.804;2024-01-06T11:15:52;7.70;99.90
8910;DHT22;4490;49.072;8.804;2024-01-06T11:18:37;7.70;99.90
8910;DHT22;4490;49.072;8.804;2024-01-06T11:24:19;7.70;99.90
8910;DHT22;4490;49.072;8.804;2024-01-06T11:26:51;7.70;99.90
8910;DHT22;4490;49.072;8.804;2024-01-06T11:29:19;7.70;99.90
8910;DHT22;4490;49.072;8.804;2024-01-06T11:34:52;7.70;99.90
8910;DHT22;4490;49.072;8.804;2024-01-06T11:40:22;7.70;99.90
8910;DHT22;4490;49.072;8.804;2024-01-06T11:45:24;7.70;99.90
8910;DHT22;4490;49.072;8.804;2024-01-06T11:48:04;7.70;99.90
8910;DHT22;4490;49.072;8.804;2024-01-06T11:50:31;7.70;99.90
8910;DHT22;4490;49.072;8.804;2024-01-06T11:52:58;7.80;99.90
8910;DHT22;4490;49.072;8.804;2024-01-06T11:55:25;7.80;99.90
8910;DHT22;4490;49.072;8.804;2024-01-06T11:57:54;7.80;99.90
8910;DHT22;4490;49.072;8.804;2024-01-06T12:00:20;7.90;99.90
8910;DHT22;4490;49.072;8.804;2024-01-06T12:02:45;7.90;99.90
8910;DHT22;4490;49.072;8.804;2024-01-06T12:05:18;7.90;99.90
8910;DHT22;4490;49.072;8.804;2024-01-06T12:07:56;7.90;99.90
8910;DHT22;4490;49.072;8.804;2024-01-06T12:10:22;8.00;99.90
8910;DHT22;4490;49.072;8.804;2024-01-06T12:13:15;8.00;99.90
8910;DHT22;4490;49.072;8.804;2024-01-06T12:15:43;8.00;99.90
8910;DHT22;4490;49.072;8.804;2024-01-06T12:18:09;8.00;99.90
8910;DHT22;4490;49.072;8.804;2024-01-06T12:20:34;8.00;99.90
8910;DHT22;4490;49.072;8.804;2024-01-06T12:23:00;8.00;99.90
8910;DHT22;4490;49.072;8.804;2024-01-06T12:25:27;8.00;99.90
8910;DHT22;4490;49.072;8.804;2024-01-06T12:27:54;8.00;99.90
8910;DHT22;4490;49.072;8.804;2024-01-06T12:30:22;8.00;99.90
8910;DHT22;4490;49.072;8.804;2024-01-06T12:32:48;8.00;99.90
8910;DHT22;4490;49.072;8.804;2024-01-06T12:35:15;8.00;99.90
8910;DHT22;4490;49.072;8.804;2024-01-06T12:37:44;8.00;99.90
8910;DHT22;4490;49.072;8.804;2024-01-06T12:40:11;8.00;99.90
8910;DHT22;4490;49.072;8.804;2024-01-06T12:42:38;8.00;99.90
8910;DHT22;4490;49.072;8.804;2024-01-06T12:45:05;8.00;99.90
8910;DHT22;4490;49.072;8.804;2024-01-06T12:47:31;8.00;99.90
8910;DHT22;4490;49.072;8.804;2024-01-06T12:49:57;8.00;99.90
8910;DHT22;4490;49.072;8.804;2024-01-06T12:52:22;8.00;99.90
8910;DHT22;4490;49.072;8.804;2024-01-06T12:54:48;8.00;99.90
8910;DHT22;4490;49.072;8.804;2024-01-06T12:57:13;8.00;99.90
8910;DHT22;4490;49.072;8.804;2024-01-06T12:59:39;8.00;99.90
8910;DHT22;4490;49.072;8.804;2024-01-06T13:02:05;8.00;99.90
8910;DHT22;4490;49.072;8.804;2024-01-06T13:04:30;8.00;99.90
8910;DHT22;4490;49.072;8.804;2024-01-06T13:06:56;8.00;99.90
8910;DHT22;4490;49.072;8.804;2024-01-06T13:09:22;8.00;99.90
8910;DHT22;4490;49.072;8.804;2024-01-06T13:11:49;8.00;99.90
8910;DHT22;4490;49.072;8.804;2024-01-06T13:14:16;8.00;99.90
8910;DHT22;4490;49.072;8.804;2024-01-06T13:16:43;8.10;99.90
8910;DHT22;4490;49.072;8.804;2024-01-06T13:19:09;8.00;99.90
8910;DHT22;4490;49.072;8.804;2024-01-06T13:21:34;8.10;99.90
8910;DHT22;4490;49.072;8.804;2024-01-06T13:24:01;8.10;99.90
8910;DHT22;4490;49.072;8.804;2024-01-06T13:26:29;8.10;99.90
8910;DHT22;4490;49.072;8.804;2024-01-06T13:28:55;8.10;99.90
8910;DHT22;4490;49.072;8.804;2024-01-06T13:31:21;8.10;99.90
8910;DHT22;4490;49.072;8.804;2024-01-06T13:33:46;8.10;99.90
8910;DHT22;4490;49.072;8.804;2024-01-06T13:36:12;8.10;99.90
8910;DHT22;4490;49.072;8.804;2024-01-06T13:38:38;8.00;99.90
8910;DHT22;4490;49.072;8.804;2024-01-06T13:41:04;8.00;99.90
8910;DHT22;4490;49.072;8.804;2024-01-06T13:43:30;8.00;99.90
8910;DHT22;4490;49.072;8.804;2024-01-06T13:45:57;8.00;99.90
8910;DHT22;4490;49.072;8.804;2024-01-06T13:48:22;8.00;99.90
8910;DHT22;4490;49.072;8.804;2024-01-06T13:50:48;8.00;99.90
8910;DHT22;4490;49.072;8.804;2024-01-06T13:53:15;8.00;99.90
8910;DHT22;4490;49.072;8.804;2024-01-06T13:55:41;8.00;99.90
8910;DHT22;4490;49.072;8.804;2024-01-06T13:58:07;8.00;99.90
8910;DHT22;4490;49.072;8.804;2024-01-06T14:00:35;7.90;99.90
8910;DHT22;4490;49.072;8.804;2024-01-06T14:03:00;8.00;99.90
8910;DHT22;4490;49.072;8.804;2024-01-06T14:05:26;7.90;99.90
8910;DHT22;4490;49.072;8.804;2024-01-06T14:07:52;7.90;99.90
8910;DHT22;4490;49.072;8.804;2024-01-06T14:10:18;7.90;99.90
8910;DHT22;4490;49.072;8.804;2024-01-06T14:12:44;7.90;99.90
8910;DHT22;4490;49.072;8.804;2024-01-06T14:15:10;7.90;99.90
8910;DHT22;4490;49.072;8.804;2024-01-06T14:17:35;7.90;99.90
8910;DHT22;4490;49.072;8.804;2024-01-06T14:20:01;7.90;99.90
8910;DHT22;4490;49.072;8.804;2024-01-06T14:22:27;7.90;99.90
8910;DHT22;4490;49.072;8.804;2024-01-06T14:24:53;7.90;99.90
8910;DHT22;4490;49.072;8.804;2024-01-06T14:27:18;7.90;99.90
8910;DHT22;4490;49.072;8.804;2024-01-06T14:29:44;7.90;99.90
8910;DHT22;4490;49.072;8.804;2024-01-06T14:32:10;7.90;99.90
8910;DHT22;4490;49.072;8.804;2024-01-06T14:34:36;7.90;99.90
8910;DHT22;4490;49.072;8.804;2024-01-06T14:37:02;7.90;99.90
8910;DHT22;4490;49.072;8.804;2024-01-06T14:39:27;7.90;99.90
8910;DHT22;4490;49.072;8.804;2024-01-06T14:41:53;7.90;99.90
8910;DHT22;4490;49.072;8.804;2024-01-06T14:44:19;7.90;99.90
8910;DHT22;4490;49.072;8.804;2024-01-06T14:46:46;7.90;99.90
8910;DHT22;4490;49.072;8.804;2024-01-06T14:49:12;7.90;99.90
8910;DHT22;4490;49.072;8.804;2024-01-06T14:51:37;7.90;99.90
8910;DHT22;4490;49.072;8.804;2024-01-06T14:54:03;7.90;99.90
8910;DHT22;4490;49.072;8.804;2024-01-06T14:56:29;8.00;99.90
8910;DHT22;4490;49.072;8.804;2024-01-06T14:58:57;7.90;99.90
8910;DHT22;4490;49.072;8.804;2024-01-06T15:01:23;8.00;99.90
8910;DHT22;4490;49.072;8.804;2024-01-06T15:03:48;8.00;99.90
8910;DHT22;4490;49.072;8.804;2024-01-06T15:06:14;8.00;99.90
8910;DHT22;4490;49.072;8.804;2024-01-06T15:08:42;8.00;99.90
8910;DHT22;4490;49.072;8.804;2024-01-06T15:11:08;8.00;99.90
8910;DHT22;4490;49.072;8.804;2024-01-06T15:13:33;7.90;99.90
8910;DHT22;4490;49.072;8.804;2024-01-06T15:16:02;7.90;99.90
8910;DHT22;4490;49.072;8.804;2024-01-06T15:18:27;8.00;99.90
8910;DHT22;4490;49.072;8.804;2024-01-06T15:20:53;8.00;99.90
8910;DHT22;4490;49.072;8.804;2024-01-06T15:23:19;8.00;99.90
8910;DHT22;4490;49.072;8.804;2024-01-06T15:25:45;8.00;99.90
8910;DHT22;4490;49.072;8.804;2024-01-06T15:28:10;8.00;99.90
8910;DHT22;4490;49.072;8.804;2024-01-06T15:30:36;7.90;99.90
8910;DHT22;4490;49.072;8.804;2024-01-06T15:33:02;8.00;99.90
8910;DHT22;4490;49.072;8.804;2024-01-06T15:35:29;8.00;99.90
8910;DHT22;4490;49.072;8.804;2024-01-06T15:37:56;8.00;99.90
8910;DHT22;4490;49.072;8.804;2024-01-06T15:40:22;8.00;99.90
8910;DHT22;4490;49.072;8.804;2024-01-06T15:42:47;8.00;99.90
8910;DHT22;4490;49.072;8.804;2024-01-06T15:45:13;8.00;99.90
8910;DHT22;4490;49.072;8.804;2024-01-06T15:47:40;8.00;99.90
8910;DHT22;4490;49.072;8.804;2024-01-06T15:50:06;8.00;99.90
8910;DHT22;4490;49.072;8.804;2024-01-06T15:52:35;7.90;99.90
8910;DHT22;4490;49.072;8.804;2024-01-06T15:55:02;8.00;99.90
8910;DHT22;4490;49.072;8.804;2024-01-06T15:57:28;8.00;99.90
8910;DHT22;4490;49.072;8.804;2024-01-06T15:59:56;8.00;99.90
8910;DHT22;4490;49.072;8.804;2024-01-06T16:02:22;8.00;99.90
8910;DHT22;4490;49.072;8.804;2024-01-06T16:04:48;8.00;99.90
8910;DHT22;4490;49.072;8.804;2024-01-06T16:07:13;8.00;99.90
8910;DHT22;4490;49.072;8.804;2024-01-06T16:09:39;8.00;99.90
8910;DHT22;4490;49.072;8.804;2024-01-06T16:12:05;8.00;99.90
8910;DHT22;4490;49.072;8.804;2024-01-06T16:14:32;8.00;99.90
8910;DHT22;4490;49.072;8.804;2024-01-06T16:16:57;8.00;99.90
8910;DHT22;4490;49.072;8.804;2024-01-06T16:19:26;8.00;99.90
8910;DHT22;4490;49.072;8.804;2024-01-06T16:21:51;8.00;99.90
8910;DHT22;4490;49.072;8.804;2024-01-06T16:24:17;8.00;99.90